createdAt,value
2022-09-12T00:02:24.454Z,100708.25
2022-09-12T00:04:51.373Z,100710.09
2022-09-12T00:07:20.126Z,100703.56
2022-09-12T00:09:49.473Z,100704.81
2022-09-12T00:12:15.898Z,100706.69
2022-09-12T00:14:42.316Z,100703.06
2022-09-12T00:17:08.841Z,100705.59
2022-09-12T00:19:37.338Z,100703.06
2022-09-12T00:22:03.858Z,100690.41
2022-09-12T00:24:30.222Z,100688.06
2022-09-12T00:26:56.614Z,100701.13
2022-09-12T00:29:22.972Z,100693.75
2022-09-12T00:31:49.614Z,100686.94
2022-09-12T00:34:16.036Z,100694.09
2022-09-12T00:36:42.670Z,100690.72
2022-09-12T00:39:10.710Z,100689.22
2022-09-12T00:41:39.237Z,100691.56
2022-09-12T00:44:26.269Z,100679.72
2022-09-12T00:46:59.729Z,100678.88
2022-09-12T00:49:34.885Z,100672.53
2022-09-12T00:52:08.747Z,100676.72
2022-09-12T00:54:41.857Z,100676.31
2022-09-12T00:57:10.546Z,100681.16
2022-09-12T00:59:48.193Z,100674.19
2022-09-12T01:02:15.366Z,100674.38
2022-09-12T01:04:43.106Z,100674.31
2022-09-12T01:07:12.818Z,100668.84
2022-09-12T01:09:41.585Z,100667.53
2022-09-12T01:12:08.717Z,100669.03
2022-09-12T01:14:35.408Z,100667.31
2022-09-12T01:17:04.317Z,100663.75
2022-09-12T01:19:33.400Z,100669.63
2022-09-12T01:22:24.647Z,100664.41
2022-09-12T01:25:06.074Z,100669.22
2022-09-12T01:27:45.173Z,100665.00
2022-09-12T01:30:17.480Z,100657.22
2022-09-12T01:33:30.698Z,100655.75
2022-09-12T01:36:06.308Z,100654.44
2022-09-12T01:38:38.598Z,100655.88
2022-09-12T01:41:26.067Z,100655.47
2022-09-12T01:43:59.334Z,100655.25
2022-09-12T01:46:33.158Z,100656.47
2022-09-12T01:49:12.328Z,100658.75
2022-09-12T01:51:44.713Z,100652.06
2022-09-12T01:54:20.684Z,100646.94
2022-09-12T01:56:54.390Z,100643.50
2022-09-12T01:59:20.768Z,100643.00
2022-09-12T02:02:00.857Z,100642.78
2022-09-12T02:04:44.254Z,100637.06
2022-09-12T02:07:19.850Z,100637.25
2022-09-12T02:09:54.708Z,100635.75
2022-09-12T02:12:26.865Z,100644.34
2022-09-12T02:14:55.519Z,100642.38
2022-09-12T02:17:26.868Z,100639.19
2022-09-12T02:20:07.400Z,100639.59
2022-09-12T02:22:36.225Z,100638.00
2022-09-12T02:25:06.233Z,100635.66
2022-09-12T02:27:37.789Z,100637.31
2022-09-12T02:30:06.489Z,100634.34
2022-09-12T02:32:48.744Z,100640.41
2022-09-12T02:35:33.872Z,100629.00
2022-09-12T02:38:04.558Z,100633.16
2022-09-12T02:40:36.053Z,100637.13
2022-09-12T02:43:07.466Z,100629.13
2022-09-12T02:45:35.748Z,100626.59
2022-09-12T02:48:13.708Z,100624.44
2022-09-12T02:50:41.264Z,100620.00
2022-09-12T02:53:09.212Z,100618.31
2022-09-12T02:55:39.226Z,100624.44
2022-09-12T02:58:10.688Z,100624.16
2022-09-12T03:00:56.963Z,100615.13
2022-09-12T03:03:50.060Z,100620.84
2022-09-12T03:06:28.947Z,100620.66
2022-09-12T03:09:19.900Z,100622.72
2022-09-12T03:12:00.457Z,100616.78
2022-09-12T03:15:17.627Z,100613.88
2022-09-12T03:17:56.876Z,100619.06
2022-09-12T03:20:40.735Z,100614.84
2022-09-12T03:23:30.965Z,100613.34
2022-09-12T03:26:05.958Z,100616.06
2022-09-12T03:28:36.943Z,100613.59
2022-09-12T03:31:13.250Z,100617.41
2022-09-12T03:33:39.660Z,100606.66
2022-09-12T03:36:06.348Z,100606.53
2022-09-12T03:38:32.683Z,100608.88
2022-09-12T03:40:59.195Z,100603.13
2022-09-12T03:43:25.595Z,100604.50
2022-09-12T03:45:53.366Z,100607.75
2022-09-12T03:48:20.026Z,100604.56
2022-09-12T03:50:46.404Z,100616.44
2022-09-12T03:53:16.568Z,100611.66
2022-09-12T03:55:43.759Z,100602.78
2022-09-12T03:58:12.533Z,100610.34
2022-09-12T04:00:39.223Z,100607.78
2022-09-12T04:03:05.625Z,100609.03
2022-09-12T04:05:31.986Z,100609.19
2022-09-12T04:08:00.776Z,100604.97
2022-09-12T04:10:29.557Z,100609.59
2022-09-12T04:12:55.897Z,100600.75
2022-09-12T04:15:24.668Z,100602.41
2022-09-12T04:17:51.022Z,100604.69
2022-09-12T04:20:20.066Z,100598.41
2022-09-12T04:22:46.459Z,100599.97
2022-09-12T04:25:17.777Z,100597.22
2022-09-12T04:27:46.293Z,100602.06
2022-09-12T04:30:15.505Z,100603.03
2022-09-12T04:32:41.945Z,100599.97
2022-09-12T04:35:08.533Z,100597.06
2022-09-12T04:37:35.247Z,100605.81
2022-09-12T04:40:01.849Z,100606.19
2022-09-12T04:42:31.913Z,100613.72
2022-09-12T04:44:58.310Z,100613.25
2022-09-12T04:47:27.510Z,100613.81
2022-09-12T04:49:53.945Z,100614.50
2022-09-12T04:52:20.292Z,100609.75
2022-09-12T04:54:46.685Z,100592.09
2022-09-12T04:57:13.332Z,100605.75
2022-09-12T04:59:39.905Z,100603.38
2022-09-12T05:02:06.389Z,100610.81
2022-09-12T05:04:35.888Z,100612.88
2022-09-12T05:07:02.946Z,100605.91
2022-09-12T05:09:34.403Z,100607.97
2022-09-12T05:12:05.485Z,100610.91
2022-09-12T05:14:35.117Z,100602.03
2022-09-12T05:17:02.597Z,100605.63
2022-09-12T05:19:30.770Z,100607.50
2022-09-12T05:21:57.704Z,100610.91
2022-09-12T05:24:24.657Z,100614.03
2022-09-12T05:26:51.653Z,100614.88
2022-09-12T05:29:20.245Z,100610.69
2022-09-12T05:31:52.209Z,100611.09
2022-09-12T05:34:19.401Z,100614.03
2022-09-12T05:36:45.830Z,100612.88
2022-09-12T05:39:14.891Z,100614.41
2022-09-12T05:41:41.323Z,100607.31
2022-09-12T05:44:14.278Z,100607.72
2022-09-12T05:46:45.487Z,100611.56
2022-09-12T05:49:13.490Z,100609.97
2022-09-12T05:51:42.758Z,100610.16
2022-09-12T05:54:12.268Z,100612.38
2022-09-12T05:56:41.573Z,100615.06
2022-09-12T05:59:12.931Z,100611.75
2022-09-12T06:01:40.060Z,100615.81
2022-09-12T06:04:07.879Z,100614.16
2022-09-12T06:06:42.028Z,100619.13
2022-09-12T06:09:09.392Z,100618.78
2022-09-12T06:11:38.422Z,100621.19
2022-09-12T06:14:05.081Z,100620.44
2022-09-12T06:16:33.534Z,100621.13
2022-09-12T06:19:12.791Z,100625.91
2022-09-12T06:21:39.877Z,100625.19
2022-09-12T06:24:07.444Z,100625.78
2022-09-12T06:26:35.359Z,100621.53
2022-09-12T06:29:02.919Z,100618.75
2022-09-12T06:31:35.282Z,100615.13
2022-09-12T06:34:04.766Z,100615.06
2022-09-12T06:36:33.748Z,100610.56
2022-09-12T06:39:02.649Z,100602.19
2022-09-12T06:41:31.188Z,100602.69
2022-09-12T06:43:58.987Z,100594.97
2022-09-12T06:46:28.401Z,100596.44
2022-09-12T06:48:59.643Z,100599.44
2022-09-12T06:51:27.476Z,100597.75
2022-09-12T06:53:58.209Z,100596.25
2022-09-12T06:56:29.397Z,100598.34
2022-09-12T06:59:00.333Z,100606.53
2022-09-12T07:01:29.645Z,100609.06
2022-09-12T07:04:00.626Z,100612.63
2022-09-12T07:06:36.406Z,100617.31
2022-09-12T07:09:10.437Z,100619.34
2022-09-12T07:11:39.190Z,100619.28
2022-09-12T07:14:06.977Z,100619.00
2022-09-12T07:16:38.208Z,100617.91
2022-09-12T07:19:06.691Z,100629.63
2022-09-12T07:21:36.445Z,100630.69
2022-09-12T07:24:03.088Z,100625.56
2022-09-12T07:26:32.973Z,100622.25
2022-09-12T07:29:13.177Z,100628.94
2022-09-12T07:31:48.628Z,100625.06
2022-09-12T07:34:15.161Z,100622.69
2022-09-12T07:36:43.952Z,100616.75
2022-09-12T07:39:13.022Z,100622.44
2022-09-12T07:41:39.771Z,100620.75
2022-09-12T07:44:09.236Z,100622.50
2022-09-12T07:46:35.690Z,100622.44
2022-09-12T07:49:02.480Z,100617.66
2022-09-12T07:51:30.359Z,100617.94
2022-09-12T07:53:59.860Z,100609.44
2022-09-12T07:56:32.714Z,100616.25
2022-09-12T07:59:01.274Z,100616.94
2022-09-12T08:01:27.731Z,100617.00
2022-09-12T08:03:59.249Z,100626.94
2022-09-12T08:06:31.163Z,100620.47
2022-09-12T08:08:58.412Z,100614.22
2022-09-12T08:11:27.834Z,100624.78
2022-09-12T08:13:57.158Z,100621.06
2022-09-12T08:16:26.826Z,100623.25
2022-09-12T08:18:53.334Z,100610.16
2022-09-12T08:21:28.813Z,100614.84
2022-09-12T08:24:00.849Z,100609.31
2022-09-12T08:26:27.612Z,100610.78
2022-09-12T08:28:54.591Z,100607.44
2022-09-12T08:31:23.274Z,100610.34
2022-09-12T08:33:50.261Z,100609.88
2022-09-12T08:36:22.375Z,100610.59
2022-09-12T08:38:59.250Z,100613.22
2022-09-12T08:41:31.693Z,100615.28
2022-09-12T08:44:16.699Z,100614.69
2022-09-12T08:46:55.407Z,100621.75
2022-09-12T08:49:35.004Z,100618.44
2022-09-12T08:52:14.625Z,100618.09
2022-09-12T08:54:45.362Z,100621.44
2022-09-12T08:57:14.316Z,100613.84
2022-09-12T08:59:45.870Z,100605.75
2022-09-12T09:02:45.973Z,100626.22
2022-09-12T09:05:36.689Z,100632.16
2022-09-12T09:08:26.875Z,100611.19
2022-09-12T09:11:28.100Z,100601.53
2022-09-12T09:14:32.459Z,100628.25
2022-09-12T09:17:00.568Z,100640.13
2022-09-12T09:19:37.529Z,100618.84
2022-09-12T09:22:14.249Z,100635.50
2022-09-12T09:24:55.142Z,100644.00
2022-09-12T09:27:41.469Z,100624.66
2022-09-12T09:30:17.063Z,100661.97
2022-09-12T09:32:49.776Z,100617.97
2022-09-12T09:35:37.844Z,100619.81
2022-09-12T09:38:47.021Z,100655.47
2022-09-12T09:41:47.790Z,100641.94
2022-09-12T09:44:14.286Z,100628.41
2022-09-12T09:46:40.711Z,100616.22
2022-09-12T09:49:12.714Z,100636.75
2022-09-12T09:51:41.358Z,100632.84
2022-09-12T09:54:24.857Z,100644.13
2022-09-12T09:56:56.020Z,100622.59
2022-09-12T09:59:33.793Z,100644.75
2022-09-12T10:02:05.287Z,100611.50
2022-09-12T10:04:41.363Z,100645.13
2022-09-12T10:07:19.317Z,100629.63
2022-09-12T10:10:25.251Z,100637.28
2022-09-12T10:13:07.290Z,100638.75
2022-09-12T10:15:39.261Z,100632.59
2022-09-12T10:18:10.809Z,100631.38
2022-09-12T10:20:44.384Z,100640.66
2022-09-12T10:23:23.115Z,100571.72
2022-09-12T10:25:56.406Z,100647.44
2022-09-12T10:28:30.494Z,100626.72
2022-09-12T10:31:02.832Z,100612.19
2022-09-12T10:33:29.913Z,100623.94
2022-09-12T10:35:58.235Z,100621.69
2022-09-12T10:38:28.301Z,100602.22
2022-09-12T10:40:58.744Z,100611.81
2022-09-12T10:43:37.448Z,100604.75
2022-09-12T10:46:16.330Z,100628.19
2022-09-12T10:48:50.884Z,100636.91
2022-09-12T10:51:26.075Z,100628.28
2022-09-12T10:53:54.286Z,100605.88
2022-09-12T10:56:24.196Z,100597.41
2022-09-12T10:59:20.256Z,100589.91
2022-09-12T11:01:47.065Z,100592.28
2022-09-12T11:04:32.236Z,100580.00
2022-09-12T11:07:14.315Z,100571.88
2022-09-12T11:10:13.440Z,100559.16
2022-09-12T11:12:53.187Z,100577.53
2022-09-12T11:15:54.765Z,100574.56
2022-09-12T11:19:03.781Z,100569.50
2022-09-12T11:21:59.115Z,100578.38
2022-09-12T11:24:43.375Z,100580.31
2022-09-12T11:27:48.147Z,100562.94
2022-09-12T11:30:17.248Z,100578.94
2022-09-12T11:33:13.597Z,100602.41
2022-09-12T11:35:54.959Z,100586.50
2022-09-12T11:38:45.395Z,100577.06
2022-09-12T11:41:21.053Z,100562.72
2022-09-12T11:44:10.417Z,100580.69
2022-09-12T11:46:39.267Z,100573.56
2022-09-12T11:49:16.765Z,100552.63
2022-09-12T11:51:56.006Z,100559.63
2022-09-12T11:54:28.190Z,100600.34
2022-09-12T11:57:06.473Z,100601.81
2022-09-12T11:59:47.119Z,100605.41
2022-09-12T12:02:22.546Z,100630.38
2022-09-12T12:05:04.427Z,100629.28
2022-09-12T12:07:51.239Z,100636.78
2022-09-12T12:10:26.286Z,100619.44
2022-09-12T12:12:55.457Z,100623.22
2022-09-12T12:15:26.519Z,100577.13
2022-09-12T12:18:03.078Z,100580.59
2022-09-12T12:20:29.621Z,100565.34
2022-09-12T12:22:56.794Z,100607.91
2022-09-12T12:25:29.895Z,100614.50
2022-09-12T12:27:59.862Z,100606.22
2022-09-12T12:30:31.568Z,100582.84
2022-09-12T12:33:15.939Z,100636.44
2022-09-12T12:35:48.180Z,100591.91
2022-09-12T12:38:32.661Z,100606.75
2022-09-12T12:41:17.276Z,100596.72
2022-09-12T12:43:47.241Z,100630.56
2022-09-12T12:46:19.547Z,100582.38
2022-09-12T12:49:31.664Z,100625.41
2022-09-12T12:52:01.539Z,100559.25
2022-09-12T12:54:40.131Z,100572.28
2022-09-12T12:57:20.957Z,100536.69
2022-09-12T12:59:52.894Z,100572.88
2022-09-12T13:02:37.289Z,100590.06
2022-09-12T13:05:15.513Z,100568.91
2022-09-12T13:07:45.253Z,100570.69
2022-09-12T13:10:23.428Z,100571.53
2022-09-12T13:12:51.974Z,100557.88
2022-09-12T13:15:36.675Z,100555.06
2022-09-12T13:18:07.180Z,100593.53
2022-09-12T13:20:38.062Z,100565.66
2022-09-12T13:23:04.408Z,100557.25
2022-09-12T13:25:36.077Z,100512.50
2022-09-12T13:28:11.371Z,100488.25
2022-09-12T13:30:42.592Z,100544.75
2022-09-12T13:33:24.451Z,100549.56
2022-09-12T13:36:06.072Z,100555.88
2022-09-12T13:38:37.900Z,100561.50
2022-09-12T13:41:13.442Z,100566.50
2022-09-12T13:43:42.503Z,100536.66
2022-09-12T13:46:13.370Z,100564.78
2022-09-12T13:48:43.127Z,100529.38
2022-09-12T13:51:23.459Z,100514.34
2022-09-12T13:53:52.451Z,100511.00
2022-09-12T13:56:22.316Z,100555.56
2022-09-12T13:58:58.324Z,100554.47
2022-09-12T14:01:38.079Z,100545.88
2022-09-12T14:04:33.200Z,100552.25
2022-09-12T14:07:01.539Z,100514.28
2022-09-12T14:09:45.621Z,100482.50
2022-09-12T14:12:21.944Z,100485.31
2022-09-12T14:14:50.985Z,100484.72
2022-09-12T14:17:31.587Z,100484.69
2022-09-12T14:20:05.703Z,100501.41
2022-09-12T14:22:34.305Z,100479.34
2022-09-12T14:25:01.949Z,100455.69
2022-09-12T14:27:38.971Z,100443.16
2022-09-12T14:30:20.910Z,100467.72
2022-09-12T14:33:13.267Z,100445.34
2022-09-12T14:36:09.535Z,100437.81
2022-09-12T14:38:51.000Z,100458.72
2022-09-12T14:41:28.578Z,100451.47
2022-09-12T14:44:01.909Z,100471.81
2022-09-12T14:46:40.915Z,100460.63
2022-09-12T14:49:18.661Z,100481.34
2022-09-12T14:51:51.440Z,100470.69
2022-09-12T14:54:33.833Z,100440.53
2022-09-12T14:57:03.348Z,100472.06
2022-09-12T14:59:37.832Z,100440.84
2022-09-12T15:02:13.355Z,100418.56
2022-09-12T15:04:46.277Z,100412.38
2022-09-12T15:07:30.711Z,100434.91
2022-09-12T15:09:59.761Z,100462.75
2022-09-12T15:12:31.141Z,100438.34
2022-09-12T15:15:14.871Z,100435.03
2022-09-12T15:17:43.772Z,100404.13
2022-09-12T15:20:11.844Z,100409.13
2022-09-12T15:22:39.751Z,100442.94
2022-09-12T15:25:06.906Z,100389.06
2022-09-12T15:27:33.365Z,100403.06
2022-09-12T15:30:02.438Z,100417.31
2022-09-12T15:32:30.147Z,100392.19
2022-09-12T15:34:56.749Z,100403.53
2022-09-12T15:37:24.463Z,100416.63
2022-09-12T15:39:51.707Z,100422.75
2022-09-12T15:42:27.695Z,100369.81
2022-09-12T15:44:54.065Z,100389.06
2022-09-12T15:47:22.247Z,100386.50
2022-09-12T15:49:48.707Z,100384.00
2022-09-12T15:52:16.514Z,100360.00
2022-09-12T15:54:43.381Z,100396.25
2022-09-12T15:57:10.052Z,100333.53
2022-09-12T15:59:36.569Z,100334.34
2022-09-12T16:02:06.085Z,100332.66
2022-09-12T16:04:32.562Z,100344.06
2022-09-12T16:06:59.255Z,100383.44
2022-09-12T16:09:25.630Z,100391.47
2022-09-12T16:11:54.726Z,100404.84
2022-09-12T16:14:21.268Z,100390.09
2022-09-12T16:16:59.670Z,100355.50
2022-09-12T16:19:26.386Z,100364.72
2022-09-12T16:21:52.823Z,100389.75
2022-09-12T16:24:22.167Z,100400.88
2022-09-12T16:26:48.539Z,100418.69
2022-09-12T16:29:17.114Z,100398.84
2022-09-12T16:31:43.545Z,100363.16
2022-09-12T16:34:10.909Z,100385.84
2022-09-12T16:36:39.787Z,100377.72
2022-09-12T16:39:08.968Z,100355.13
2022-09-12T16:41:37.692Z,100374.75
2022-09-12T16:44:04.058Z,100376.69
2022-09-12T16:46:30.520Z,100385.28
2022-09-12T16:48:58.532Z,100374.41
2022-09-12T16:51:35.798Z,100360.81
2022-09-12T16:54:02.460Z,100335.03
2022-09-12T16:56:28.832Z,100327.78
2022-09-12T16:58:57.791Z,100331.16
2022-09-12T17:01:26.055Z,100364.00
2022-09-12T17:03:58.012Z,100326.31
2022-09-12T17:06:25.781Z,100308.97
2022-09-12T17:08:53.677Z,100309.31
2022-09-12T17:11:23.972Z,100301.72
2022-09-12T17:14:05.527Z,100293.03
2022-09-12T17:16:38.653Z,100263.94
2022-09-12T17:19:06.199Z,100249.78
2022-09-12T17:21:33.667Z,100256.94
2022-09-12T17:24:00.109Z,100220.97
2022-09-12T17:26:26.913Z,100210.34
2022-09-12T17:28:53.363Z,100227.00
2022-09-12T17:31:22.126Z,100229.38
2022-09-12T17:33:50.649Z,100223.44
2022-09-12T17:36:17.899Z,100203.78
2022-09-12T17:38:49.203Z,100211.16
2022-09-12T17:41:21.970Z,100196.34
2022-09-12T17:43:50.981Z,100208.78
2022-09-12T17:46:26.308Z,100203.06
2022-09-12T17:48:54.425Z,100210.94
2022-09-12T17:51:22.365Z,100189.66
2022-09-12T17:53:49.183Z,100190.28
2022-09-12T17:56:15.672Z,100181.19
2022-09-12T17:58:42.088Z,100212.31
2022-09-12T18:01:32.816Z,100216.53
2022-09-12T18:04:03.693Z,100216.38
2022-09-12T18:06:31.605Z,100214.53
2022-09-12T18:09:03.439Z,100214.69
2022-09-12T18:11:29.799Z,100230.88
2022-09-12T18:13:58.357Z,100229.22
2022-09-12T18:16:28.289Z,100234.41
2022-09-12T18:18:55.323Z,100225.94
2022-09-12T18:21:21.971Z,100223.25
2022-09-12T18:23:48.542Z,100228.94
2022-09-12T18:26:15.075Z,100240.72
2022-09-12T18:28:43.986Z,100227.53
2022-09-12T18:31:13.910Z,100220.47
2022-09-12T18:33:43.171Z,100231.66
2022-09-12T18:36:11.902Z,100234.34
2022-09-12T18:38:40.822Z,100235.22
2022-09-12T18:41:18.615Z,100234.84
2022-09-12T18:43:49.694Z,100244.94
2022-09-12T18:46:18.628Z,100246.34
2022-09-12T18:48:46.138Z,100247.84
2022-09-12T18:51:15.217Z,100246.50
2022-09-12T18:53:42.918Z,100246.13
2022-09-12T18:56:16.677Z,100238.84
2022-09-12T18:58:43.745Z,100238.47
2022-09-12T19:01:10.221Z,100230.09
2022-09-12T19:03:36.823Z,100230.56
2022-09-12T19:06:11.708Z,100221.81
2022-09-12T19:08:40.919Z,100230.81
2022-09-12T19:11:08.874Z,100237.31
2022-09-12T19:13:40.236Z,100229.03
2022-09-12T19:16:12.454Z,100222.53
2022-09-12T19:18:39.832Z,100218.00
2022-09-12T19:21:10.258Z,100232.25
2022-09-12T19:23:38.064Z,100234.41
2022-09-12T19:26:15.877Z,100232.25
2022-09-12T19:28:43.449Z,100220.25
2022-09-12T19:31:15.112Z,100225.84
2022-09-12T19:33:41.668Z,100221.03
2022-09-12T19:36:27.585Z,100226.44
2022-09-12T19:38:58.276Z,100223.53
2022-09-12T19:41:27.152Z,100221.84
2022-09-12T19:43:55.297Z,100219.22
2022-09-12T19:46:23.709Z,100218.84
2022-09-12T19:48:50.612Z,100209.38
2022-09-12T19:51:17.767Z,100202.28
2022-09-12T19:53:44.717Z,100210.81
2022-09-12T19:56:14.896Z,100204.09
2022-09-12T19:58:44.189Z,100208.59
2022-09-12T20:01:15.541Z,100198.28
2022-09-12T20:03:45.318Z,100210.84
2022-09-12T20:06:17.731Z,100220.06
2022-09-12T20:08:44.330Z,100207.81
2022-09-12T20:11:15.717Z,100192.94
2022-09-12T20:13:42.211Z,100193.63
2022-09-12T20:16:11.485Z,100195.41
2022-09-12T20:18:38.369Z,100183.41
2022-09-12T20:21:13.478Z,100192.09
2022-09-12T20:23:41.291Z,100186.91
2022-09-12T20:26:09.019Z,100185.94
2022-09-12T20:28:37.127Z,100178.38
2022-09-12T20:31:06.733Z,100184.78
2022-09-12T20:33:33.258Z,100185.25
2022-09-12T20:36:05.133Z,100186.78
2022-09-12T20:38:31.596Z,100181.53
2022-09-12T20:40:58.208Z,100196.44
2022-09-12T20:43:25.020Z,100182.50
2022-09-12T20:45:51.413Z,100181.28
2022-09-12T20:48:17.772Z,100182.69
2022-09-12T20:50:44.323Z,100179.28
2022-09-12T20:53:10.734Z,100170.66
2022-09-12T20:55:37.125Z,100172.81
2022-09-12T20:58:03.701Z,100167.16
2022-09-12T21:00:30.489Z,100173.09
2022-09-12T21:02:57.074Z,100172.72
2022-09-12T21:05:23.562Z,100167.06
2022-09-12T21:07:54.513Z,100176.81
2022-09-12T21:10:23.895Z,100173.09
2022-09-12T21:12:52.509Z,100169.53
2022-09-12T21:15:18.919Z,100172.28
2022-09-12T21:17:45.264Z,100163.25
2022-09-12T21:20:13.574Z,100162.38
2022-09-12T21:22:40.145Z,100165.59
2022-09-12T21:25:08.940Z,100156.28
2022-09-12T21:27:38.403Z,100149.34
2022-09-12T21:30:05.515Z,100156.13
2022-09-12T21:32:35.845Z,100150.22
2022-09-12T21:35:06.944Z,100139.69
2022-09-12T21:37:33.337Z,100139.91
2022-09-12T21:40:02.091Z,100146.88
2022-09-12T21:42:28.533Z,100153.66
2022-09-12T21:44:57.035Z,100152.00
2022-09-12T21:47:23.403Z,100148.00
2022-09-12T21:49:52.431Z,100150.13
2022-09-12T21:52:18.798Z,100156.72
2022-09-12T21:54:45.149Z,100141.94
2022-09-12T21:57:12.000Z,100148.34
2022-09-12T21:59:38.336Z,100144.13
2022-09-12T22:02:08.265Z,100145.03
2022-09-12T22:04:34.673Z,100132.81
2022-09-12T22:07:02.055Z,100127.31
2022-09-12T22:09:34.281Z,100132.22
2022-09-12T22:12:02.279Z,100125.88
2022-09-12T22:14:29.409Z,100121.66
2022-09-12T22:16:56.707Z,100118.91
2022-09-12T22:19:23.097Z,100128.81
2022-09-12T22:22:10.639Z,100126.09
2022-09-12T22:24:37.216Z,100140.47
2022-09-12T22:27:07.077Z,100144.50
2022-09-12T22:29:38.867Z,100141.59
2022-09-12T22:32:05.318Z,100149.41
2022-09-12T22:34:32.024Z,100157.25
2022-09-12T22:36:59.783Z,100146.97
2022-09-12T22:39:28.803Z,100152.88
2022-09-12T22:41:55.157Z,100153.56
2022-09-12T22:44:22.747Z,100145.53
2022-09-12T22:46:52.015Z,100146.63
2022-09-12T22:49:18.423Z,100153.63
2022-09-12T22:51:44.901Z,100151.94
2022-09-12T22:54:11.446Z,100146.28
2022-09-12T22:56:40.242Z,100144.59
2022-09-12T22:59:08.947Z,100135.53
2022-09-12T23:01:35.515Z,100140.00
2022-09-12T23:04:05.356Z,100134.50
2022-09-12T23:06:31.844Z,100130.28
2022-09-12T23:08:58.227Z,100123.53
2022-09-12T23:11:24.957Z,100134.50
2022-09-12T23:13:53.639Z,100131.13
2022-09-12T23:16:28.325Z,100129.44
2022-09-12T23:18:56.149Z,100128.00
2022-09-12T23:21:25.123Z,100128.44
2022-09-12T23:23:51.553Z,100117.88
2022-09-12T23:26:26.878Z,100122.56
2022-09-12T23:29:05.549Z,100120.66
2022-09-12T23:31:33.629Z,100116.44
2022-09-12T23:34:03.637Z,100111.38
2022-09-12T23:36:30.322Z,100111.84
2022-09-12T23:39:03.275Z,100111.59
2022-09-12T23:41:29.626Z,100120.47
2022-09-12T23:43:56.265Z,100113.94
2022-09-12T23:46:27.490Z,100125.75
2022-09-12T23:48:53.886Z,100123.25
2022-09-12T23:51:21.768Z,100120.06
2022-09-12T23:53:48.584Z,100122.81
2022-09-12T23:56:15.031Z,100129.38
2022-09-12T23:58:41.701Z,100124.72
